Terminal Aerodrome Forecast
Issued by NWS Detroit/Pontiac, MI

Home | Current Version | Previous Version | Text Only | Print | Product List | Glossary On
Versions: 1 2 3 4 5 6 7 8 9 10 11 12 13 14 15 16 17 18 19 20 21
000
FTUS43 KDTX 231127
TAFFNT
TAF
KFNT 231127Z 2312/2412 23010KT P6SM SCT020 BKN070
     FM231500 23012KT P6SM -SHRA BKN015 OVC025
     FM231700 25015G25KT 6SM -RASN BKN015 OVC025
     FM231900 28017G25KT 4SM -SHSN OVC015
     FM232300 30012G20KT P6SM OVC015
     FM240400 29010KT P6SM OVC015=

USA.gov is the U.S. government's official web portal to all federal, state and local government web resources and services.